METAR Data
IDs: Format: Raw Decoded Include TAF

Data at: 0637 UTC 23 Feb 2019

PAIN 230556Z 17003KT 10SM CLR M19/M22 A3031 RMK AO2 SLP329 T11891222 11050 21189 53010 FZRANO
PAIN 230456Z 19003KT 10SM CLR M16/M21 A3029 RMK AO2 SLP318 T11611206 FZRANO
PAIN 230356Z 21005KT 10SM CLR M13/M18 A3029 RMK AO2 SLP315 T11331183 FZRANO
PAIN 230256Z 20006KT 10SM CLR M12/M17 A3028 RMK AO2 SLP308 T11171172 53006 FZRANO
PAIN 230156Z 22004KT 10SM CLR M09/M16 A3026 RMK AO2 SLP301 T10891156 FZRANO
PAIN 230056Z 21005KT 10SM CLR M06/M14 A3026 RMK AO2 SLP297 T10611144 FZRANO
PAIN 222356Z 19003KT 10SM CLR M06/M13 A3026 RMK AO2 SLP298 60000 T10561133 11050 21206 56005 FZRANO
PAIN 222256Z 22003KT 10SM CLR M06/M14 A3026 RMK AO2 SLP301 T10561139 FZRANO
PAIN 222156Z 00000KT 10SM CLR M07/M13 A3027 RMK AO2 SNB35E47 SLP304 P0000 T10671133 FZRANO
PAIN 222056Z 00000KT 10SM CLR M09/M15 A3027 RMK AO2 SNB17E27 SLP308 P0000 60000 T10891150 51006 FZRANO
PAIN 221956Z 00000KT 10SM CLR M12/M16 A3026 RMK AO2 SNB1859E10 SLP305 P0000 T11221156 FZRANO
PAIN 221856Z 00000KT 10SM CLR M17/M19 A3027 RMK AO2 SNE02 SLP310 P0000 T11671189 FZRANO
PAIN 221756Z 00000KT 9SM -SN BKN039 M20/M22 A3026 RMK AO2 SLP306 P0000 60000 T12001217 11161 21200 53011 FZRANO
PAIN 221656Z 00000KT 9SM -SN OVC039 M17/M19 A3024 RMK AO2 SLP298 P0000 T11721194 FZRANO
PAIN 221556Z 00000KT 9SM -SN OVC041 M17/M19 A3023 RMK AO2 SLP294 P0000 T11721194 FZRANO
PAIN 221539Z 00000KT 9SM -SN FEW025 OVC041 M17/M19 A3023 RMK AO2 P0000 FZRANO
PAIN 221456Z 00000KT 4SM -SN BR OVC025 M16/M18 A3022 RMK AO2 SLP289 P0000 60000 T11611178 51014 FZRANO
PAIN 221443Z 00000KT 3SM -SN BR OVC025 M16/M18 A3022 RMK AO2 P0000 FZRANO
PAIN 221411Z 00000KT 2 1/2SM -SN BR OVC019 M16/M18 A3021 RMK AO2 P0000 FZRANO
PAIN 221356Z 00000KT 1 3/4SM -SN BR OVC019 M16/M18 A3021 RMK AO2 SLP285 P0000 T11611183 FZRANO
PAIN 221322Z 00000KT 2SM -SN BR OVC019 M16/M18 A3020 RMK AO2 VIS 1 1/2V3 P0000 FZRANO
PAIN 221256Z 00000KT 1 1/2SM -SN BR OVC027 M17/M18 A3019 RMK AO2 VIS 1V3 SLP278 P0000 T11671183 FZRANO
PAIN 221239Z 00000KT 2 1/2SM -SN BR OVC027 M17/M19 A3019 RMK AO2 VIS 2V3 P0000 FZRANO
PAIN 221222Z 00000KT 3SM -SN BR OVC029 M18/M19 A3019 RMK AO2 P0000 FZRANO
PAIN 221156Z 00000KT 3SM -SN BR OVC031 M18/M20 A3018 RMK AO2 SLP275 P0000 60000 T11781200 11133 21211 51018 FZRANO
PAIN 221056Z 00000KT 8SM -SN OVC037 M20/M22 A3016 RMK AO2 SLP271 P0000 T12001217 FZRANO
PAIN 220956Z 00000KT 7SM -SN CLR M21/M22 A3015 RMK AO2 SLP267 P0000 T12061222 FZRANO
PAIN 220856Z 00000KT 9SM -SN CLR M20/M22 A3012 RMK AO2 SLP259 P0000 60000 T12001222 410941200 51026 FZRANO
PAIN 220756Z 27003KT 9SM -SN CLR M18/M20 A3010 RMK AO2 SLP250 P0000 T11831200 FZRANO
PAIN 220656Z 00000KT 9SM -SN CLR M16/M18 A3008 RMK AO2 SLP240 P0000 T11561178 FZRANO
PAIN 220556Z 01008KT 9SM -SN FEW029 M13/M16 A3004 RMK AO2 SLP226 P0000 60000 T11331156 11094 21133 51018 FZRANO
PAIN 220513Z 36008KT 6SM -SN BR OVC029 M13/M15 A3004 RMK AO2 P0000 FZRANO
PAIN 220456Z 36007KT 7SM -SN OVC030 M13/M15 A3003 RMK AO2 SLP223 P0000 T11281150 FZRANO
PAIN 220418Z 01010KT 9SM -SN OVC028 M12/M14 A3001 RMK AO2 P0000 FZRANO
PAIN 220356Z 02007KT 8SM -SN OVC030 M12/M14 A3001 RMK AO2 SLP216 P0000 T11171144 FZRANO
PAIN 220256Z 36010G14KT 4SM -SN OVC035 M12/M14 A2999 RMK AO2 SLP208 P0000 60000 T11171144 53025 FZRANO
PAIN 220156Z 36013KT 6SM -SN OVC041 M12/M14 A2996 RMK AO2 SLP198 P0000 T11171144 FZRANO
PAIN 220056Z 36009KT 9SM -SN OVC035 M09/M14 A2994 RMK AO2 SLP189 P0000 T10941139 FZRANO
PAIN 212356Z 36012G19KT 8SM -SN OVC037 M11/M14 A2991 RMK AO2 SLP180 P0000 60000 T11061139 11106 21133 53016 FZRANO
PAIN 212256Z 36013G17KT 4SM -SN OVC041 M11/M14 A2990 RMK AO2 SLP175 P0000 T11061144 FZRANO
PAIN 212156Z 01010KT 9SM -SN OVC045 M11/M14 A2988 RMK AO2 SLP169 P0000 T11111144 FZRANO
PAIN 212056Z 01009G17KT 7SM -SN OVC045 M12/M14 A2986 RMK AO2 SLP166 P0000 60000 T11171144 51021 FZRANO
PAIN 211956Z 01009KT 4SM -SN BR BKN037 OVC046 M13/M15 A2984 RMK AO2 SLP158 P0000 T11281150 FZRANO
PAIN 211924Z 36010G14KT 5SM -SN BR SCT039 OVC046 M13/M16 A2983 RMK AO2 P0000 FZRANO
PAIN 211912Z 01010G15KT 2 1/2SM -SN BR BKN044 OVC055 M13/M16 A2983 RMK AO2 P0000 FZRANO
PAIN 211856Z 01011G17KT 6SM -SN OVC055 M13/M16 A2982 RMK AO2 SLP150 P0000 T11281156 FZRANO